Time;durP1;ratioP1;P1;durP2;ratioP2;P2;SDS_P1;SDS_P2;PMS_P1;PMS_P2;Temp;Humidity;BMP_temperature;BMP_pressure;BME280_temperature;BME280_humidity;BME280_pressure;Samples;Min_cycle;Max_cycle;Signal;HPM_P1;HPM_P2
2022/01/04 00:02:01;;;;;;;29.65;7.25;;;9.50;99.90;;;;;;5017240;28;20045;-82
2022/01/04 00:04:27;;;;;;;35.05;8.02;;;9.40;99.90;;;;;;5034596;28;20463;-82
2022/01/04 00:06:54;;;;;;;33.88;7.43;;;9.40;99.90;;;;;;5017716;28;20041;-82
2022/01/04 00:09:21;;;;;;;36.92;7.50;;;9.40;99.90;;;;;;5017707;28;20062;-82
2022/01/04 00:14:12;;;;;;;32.05;7.80;;;9.30;99.90;;;;;;5034063;28;20095;-82
2022/01/04 00:16:39;;;;;;;37.40;7.65;;;9.30;99.90;;;;;;5032824;28;20073;-82
2022/01/04 00:19:05;;;;;;;28.02;6.82;;;9.30;99.90;;;;;;5017076;28;20110;-82
2022/01/04 00:21:31;;;;;;;32.45;7.45;;;9.30;99.90;;;;;;5017120;28;20477;-82
2022/01/04 00:23:57;;;;;;;38.58;7.63;;;9.40;99.90;;;;;;5050741;28;20587;-82
2022/01/04 00:26:22;;;;;;;34.83;7.35;;;9.30;99.90;;;;;;5017392;28;20053;-82
2022/01/04 00:28:48;;;;;;;33.97;7.93;;;9.30;99.90;;;;;;5051180;28;20300;-82
2022/01/04 00:31:13;;;;;;;31.10;7.65;;;9.20;99.90;;;;;;5051169;28;20049;-81
2022/01/04 00:33:39;;;;;;;37.90;7.63;;;9.30;99.90;;;;;;5034583;28;20143;-82
2022/01/04 00:36:06;;;;;;;54.45;9.25;;;9.30;99.90;;;;;;5050735;28;20046;-82
2022/01/04 00:38:32;;;;;;;36.78;7.07;;;9.20;99.90;;;;;;5017753;28;20052;-82
2022/01/04 00:40:58;;;;;;;36.95;8.38;;;9.20;99.90;;;;;;5001194;28;20045;-82
2022/01/04 00:43:24;;;;;;;38.83;8.77;;;9.20;99.90;;;;;;5033964;28;20396;-82
2022/01/04 00:45:51;;;;;;;43.85;8.52;;;9.30;99.90;;;;;;4984507;28;20056;-82
2022/01/04 00:50:43;;;;;;;28.17;9.60;;;9.00;99.90;;;;;;5034084;28;20135;-82
2022/01/04 00:53:09;;;;;;;47.58;8.45;;;9.10;99.90;;;;;;5017837;28;20053;-82
2022/01/04 00:55:35;;;;;;;48.80;8.68;;;9.10;99.90;;;;;;5017178;28;20054;-82
2022/01/04 00:58:01;;;;;;;40.35;7.75;;;9.10;99.90;;;;;;5050642;28;20057;-82
2022/01/04 01:00:27;;;;;;;34.60;7.63;;;9.10;99.90;;;;;;5016913;28;20469;-82
2022/01/04 01:02:53;;;;;;;34.20;8.15;;;9.10;99.90;;;;;;5049169;28;20145;-82
2022/01/04 01:05:19;;;;;;;36.90;7.53;;;9.20;99.90;;;;;;5033090;28;20050;-82
2022/01/04 01:07:45;;;;;;;37.72;8.55;;;9.20;99.90;;;;;;5016705;28;20052;-82
2022/01/04 01:12:46;;;;;;;38.03;8.68;;;9.20;99.90;;;;;;5033232;28;20084;-82
2022/01/04 01:15:12;;;;;;;34.05;8.35;;;9.20;99.90;;;;;;5000339;28;20087;-82
2022/01/04 01:17:38;;;;;;;27.05;7.45;;;9.20;99.90;;;;;;5033084;28;20048;-82
2022/01/04 01:20:07;;;;;;;35.08;8.73;;;9.30;99.90;;;;;;5000461;28;20049;-82
2022/01/04 01:22:34;;;;;;;33.10;8.10;;;9.20;99.90;;;;;;5049537;28;20049;-82
2022/01/04 01:25:00;;;;;;;38.83;8.38;;;9.20;99.90;;;;;;5033384;28;20053;-81
2022/01/04 01:27:25;;;;;;;44.80;9.20;;;9.20;99.90;;;;;;5017209;28;20092;-82
2022/01/04 01:29:51;;;;;;;32.55;8.70;;;9.20;99.90;;;;;;5016554;28;20041;-81
2022/01/04 01:32:16;;;;;;;35.03;7.72;;;9.30;99.90;;;;;;5016643;28;20049;-82
2022/01/04 01:34:42;;;;;;;36.95;9.02;;;9.30;99.90;;;;;;5000473;28;20041;-81
2022/01/04 01:37:09;;;;;;;32.58;9.30;;;9.40;99.90;;;;;;5049526;28;20087;-82
2022/01/04 01:39:35;;;;;;;35.65;9.07;;;9.50;99.90;;;;;;5016201;28;20584;-82
2022/01/04 01:42:00;;;;;;;33.60;9.73;;;9.50;99.90;;;;;;5015778;28;20124;-82
2022/01/04 01:44:27;;;;;;;28.70;7.90;;;9.60;99.90;;;;;;5049596;28;20132;-82
2022/01/04 01:46:53;;;;;;;37.08;9.32;;;9.50;99.90;;;;;;5000482;28;20053;-81
2022/01/04 01:49:18;;;;;;;45.38;10.38;;;9.50;99.90;;;;;;5015827;28;20054;-82
2022/01/04 01:51:45;;;;;;;40.58;9.85;;;9.60;99.90;;;;;;4999900;28;20041;-82
2022/01/04 01:54:11;;;;;;;33.63;9.52;;;9.60;99.90;;;;;;4999972;28;20049;-81
2022/01/04 01:56:37;;;;;;;29.23;9.48;;;9.70;99.90;;;;;;5016163;28;20099;-81
2022/01/04 01:59:02;;;;;;;41.15;9.70;;;9.60;99.90;;;;;;5049090;28;20053;-81
2022/01/04 02:01:28;;;;;;;42.53;10.05;;;9.60;99.90;;;;;;5016318;28;20205;-82
2022/01/04 02:03:54;;;;;;;48.92;9.00;;;9.60;99.90;;;;;;5016718;28;20049;-82
2022/01/04 02:06:21;;;;;;;42.33;8.57;;;9.50;99.90;;;;;;5000668;28;20052;-81
2022/01/04 02:08:47;;;;;;;50.70;9.55;;;9.50;99.90;;;;;;5016944;28;20103;-82
2022/01/04 02:11:13;;;;;;;37.13;9.27;;;9.50;99.90;;;;;;5032733;28;20074;-82
2022/01/04 02:13:39;;;;;;;36.38;8.07;;;9.50;99.90;;;;;;5049494;28;20041;-82
2022/01/04 02:16:08;;;;;;;44.33;8.60;;;9.50;99.90;;;;;;5015787;28;20045;-82
2022/01/04 02:18:33;;;;;;;35.63;7.93;;;9.50;99.90;;;;;;5019452;28;20045;-82
2022/01/04 02:20:59;;;;;;;43.63;8.38;;;9.50;99.90;;;;;;5036459;28;20045;-82
2022/01/04 02:23:25;;;;;;;40.58;8.70;;;9.40;99.90;;;;;;5053349;28;20053;-82
2022/01/04 02:25:50;;;;;;;32.63;7.35;;;9.40;99.90;;;;;;5036518;28;20055;-81
2022/01/04 02:28:20;;;;;;;38.25;8.05;;;9.40;99.90;;;;;;5020433;28;20099;-81
2022/01/04 02:30:49;;;;;;;30.30;7.35;;;9.50;99.90;;;;;;5020342;28;20041;-81
2022/01/04 02:33:15;;;;;;;37.67;7.53;;;9.50;99.90;;;;;;5036464;28;20053;-81
2022/01/04 02:35:41;;;;;;;43.75;8.57;;;9.50;99.90;;;;;;5019544;28;20038;-81
2022/01/04 02:38:07;;;;;;;39.03;8.20;;;9.50;99.90;;;;;;5019756;28;20041;-81
2022/01/04 02:40:33;;;;;;;40.50;7.50;;;9.50;99.90;;;;;;5019729;28;20056;-82
2022/01/04 02:42:59;;;;;;;38.10;8.07;;;9.50;99.90;;;;;;5035779;28;20052;-81
2022/01/04 02:45:25;;;;;;;35.38;7.57;;;9.50;99.90;;;;;;5019705;28;20099;-82
2022/01/04 02:47:52;;;;;;;37.38;7.63;;;9.60;99.90;;;;;;5019531;28;20045;-81
2022/01/04 02:50:17;;;;;;;32.17;7.50;;;9.60;99.90;;;;;;5035597;28;20041;-82
2022/01/04 02:52:43;;;;;;;33.13;7.68;;;9.60;99.90;;;;;;5035751;28;20052;-82
2022/01/04 02:55:13;;;;;;;31.02;7.35;;;9.50;99.90;;;;;;5019476;28;20471;-81
2022/01/04 02:57:40;;;;;;;32.38;7.70;;;9.60;99.90;;;;;;5035676;28;20061;-81
2022/01/04 03:00:11;;;;;;;31.80;6.97;;;9.70;99.90;;;;;;5019574;28;20053;-81
2022/01/04 03:02:37;;;;;;;32.63;8.27;;;9.60;99.90;;;;;;5035288;28;20493;-81
2022/01/04 03:05:04;;;;;;;31.95;7.95;;;9.60;99.90;;;;;;5035888;28;20477;-81
2022/01/04 03:07:30;;;;;;;42.97;8.02;;;9.60;99.90;;;;;;5018962;28;20473;-82
2022/01/04 03:09:56;;;;;;;42.22;8.25;;;9.60;99.90;;;;;;5035432;28;20179;-81
2022/01/04 03:12:22;;;;;;;36.05;9.20;;;9.70;99.90;;;;;;5003150;28;20134;-82
2022/01/04 03:14:48;;;;;;;37.85;7.78;;;9.60;99.90;;;;;;5035458;28;20038;-82
2022/01/04 03:17:13;;;;;;;41.95;8.27;;;9.60;99.90;;;;;;5035385;28;20143;-82
2022/01/04 03:19:39;;;;;;;33.42;7.18;;;9.60;99.90;;;;;;5018438;28;20069;-82
2022/01/04 03:22:05;;;;;;;28.83;7.22;;;9.50;99.90;;;;;;5002765;28;20099;-81
2022/01/04 03:24:31;;;;;;;35.85;8.73;;;9.60;99.90;;;;;;5018611;28;20041;-81
2022/01/04 03:26:57;;;;;;;43.67;8.30;;;9.60;99.90;;;;;;5018614;28;20049;-81
2022/01/04 03:29:23;;;;;;;43.38;8.50;;;9.60;99.90;;;;;;5018712;28;20047;-81
2022/01/04 03:31:49;;;;;;;44.70;7.72;;;9.70;99.90;;;;;;5018437;28;20045;-81
2022/01/04 03:34:15;;;;;;;40.50;9.15;;;9.70;99.90;;;;;;5034935;28;20049;-81
2022/01/04 03:36:41;;;;;;;44.28;9.52;;;9.60;99.90;;;;;;5018213;28;20048;-81
2022/01/04 03:39:09;;;;;;;37.97;8.48;;;9.60;99.90;;;;;;5018031;28;20456;-81
2022/01/04 03:41:38;;;;;;;49.25;9.45;;;9.60;99.90;;;;;;5018242;28;20045;-81
2022/01/04 03:44:10;;;;;;;42.05;9.23;;;9.50;99.90;;;;;;5035382;28;20041;-81
2022/01/04 03:46:36;;;;;;;36.20;9.05;;;9.50;99.90;;;;;;5018893;28;20057;-81
2022/01/04 03:49:03;;;;;;;32.03;8.38;;;9.50;99.90;;;;;;5033953;28;20484;-81
2022/01/04 03:51:29;;;;;;;38.33;9.75;;;9.40;99.90;;;;;;5018246;28;20060;-82
2022/01/04 03:53:55;;;;;;;37.38;8.77;;;9.40;99.90;;;;;;5002072;28;20046;-81
2022/01/04 03:56:20;;;;;;;46.08;8.57;;;9.40;99.90;;;;;;5034715;28;20052;-81
2022/01/04 03:58:46;;;;;;;43.95;9.18;;;9.40;99.90;;;;;;5018143;28;20199;-81
2022/01/04 04:01:11;;;;;;;36.08;9.32;;;9.50;99.90;;;;;;5034592;28;20049;-82
2022/01/04 04:03:37;;;;;;;29.15;9.18;;;9.50;99.90;;;;;;5017985;28;20468;-81
2022/01/04 04:06:03;;;;;;;34.63;8.57;;;9.50;99.90;;;;;;5051153;28;20052;-81
2022/01/04 04:08:29;;;;;;;40.03;8.43;;;9.50;99.90;;;;;;5034319;28;20085;-81
2022/01/04 04:10:54;;;;;;;41.83;8.68;;;9.60;99.90;;;;;;5017936;28;20041;-81
2022/01/04 04:13:20;;;;;;;35.85;8.43;;;9.70;99.90;;;;;;5018609;28;20380;-81
2022/01/04 04:15:46;;;;;;;37.63;8.52;;;9.70;99.90;;;;;;5034156;28;20470;-81
2022/01/04 04:18:13;;;;;;;34.28;8.80;;;9.70;99.90;;;;;;5017658;28;20050;-82
2022/01/04 04:20:39;;;;;;;39.05;9.15;;;9.70;99.90;;;;;;5017129;28;20124;-82
2022/01/04 04:23:07;;;;;;;39.90;9.10;;;9.70;99.90;;;;;;5034485;28;20045;-81
2022/01/04 04:25:33;;;;;;;39.90;9.43;;;9.70;99.90;;;;;;5033875;28;20546;-81
2022/01/04 04:27:59;;;;;;;37.45;9.30;;;9.70;99.90;;;;;;5050535;28;20583;-81
2022/01/04 04:30:25;;;;;;;35.30;9.23;;;9.60;99.90;;;;;;5017504;28;20388;-81
2022/01/04 04:32:51;;;;;;;40.95;11.10;;;9.60;99.90;;;;;;5050600;28;20053;-81
2022/01/04 04:35:17;;;;;;;47.83;11.82;;;9.70;99.90;;;;;;5017830;28;20045;-81
2022/01/04 04:37:43;;;;;;;44.50;11.27;;;9.70;99.90;;;;;;5034046;28;20034;-81
2022/01/04 04:40:09;;;;;;;42.63;10.93;;;9.60;99.90;;;;;;5033506;28;20132;-81
2022/01/04 04:42:35;;;;;;;52.35;12.20;;;9.60;99.90;;;;;;5033934;28;20049;-81
2022/01/04 04:45:02;;;;;;;42.25;12.90;;;9.60;99.90;;;;;;5051246;28;20106;-81
2022/01/04 04:47:28;;;;;;;44.00;13.02;;;9.60;99.90;;;;;;5017410;28;20092;-81
2022/01/04 04:49:54;;;;;;;44.08;12.55;;;9.50;99.90;;;;;;5033417;28;20045;-81
2022/01/04 04:52:20;;;;;;;52.63;12.98;;;9.50;99.90;;;;;;5033737;28;20038;-81
2022/01/04 04:54:46;;;;;;;57.20;14.02;;;9.50;99.90;;;;;;5017428;28;20046;-81
2022/01/04 04:57:12;;;;;;;60.30;14.65;;;9.50;99.90;;;;;;5033669;28;20044;-81
2022/01/04 04:59:38;;;;;;;55.65;14.32;;;9.50;99.90;;;;;;5000346;28;20144;-81
2022/01/04 05:02:07;;;;;;;52.67;15.05;;;9.60;99.90;;;;;;5016999;28;20057;-81
2022/01/04 05:04:33;;;;;;;52.33;15.27;;;9.50;99.90;;;;;;5033751;28;20086;-81
2022/01/04 05:06:59;;;;;;;57.85;16.10;;;9.50;99.90;;;;;;5001285;28;20057;-81
2022/01/04 05:09:24;;;;;;;57.85;16.33;;;9.50;99.90;;;;;;5017519;28;20060;-81
2022/01/04 05:11:50;;;;;;;72.43;17.90;;;9.50;99.90;;;;;;5050765;28;20041;-81
2022/01/04 05:14:16;;;;;;;68.28;16.75;;;9.50;99.90;;;;;;5017575;28;20473;-82
2022/01/04 05:16:42;;;;;;;53.53;17.20;;;9.40;99.90;;;;;;5017990;28;20056;-82
2022/01/04 05:19:07;;;;;;;73.45;18.08;;;9.40;99.90;;;;;;5017338;28;20045;-82
2022/01/04 05:21:33;;;;;;;61.63;17.80;;;9.40;99.90;;;;;;5050157;28;20049;-81
2022/01/04 05:23:59;;;;;;;64.43;17.30;;;9.50;99.90;;;;;;5017585;28;20056;-81
2022/01/04 05:26:24;;;;;;;67.70;18.13;;;9.50;99.90;;;;;;5033680;28;20045;-81
2022/01/04 05:28:50;;;;;;;70.22;18.35;;;9.50;99.90;;;;;;5017432;28;20056;-81
2022/01/04 05:31:16;;;;;;;68.55;18.63;;;9.50;99.90;;;;;;5017462;28;20049;-81
2022/01/04 05:33:41;;;;;;;62.38;17.60;;;9.50;99.90;;;;;;5050221;28;20053;-81
2022/01/04 05:36:07;;;;;;;74.30;18.95;;;9.40;99.90;;;;;;5033483;28;20037;-82
2022/01/04 05:38:33;;;;;;;60.88;19.67;;;9.30;99.90;;;;;;5033864;28;20057;-82
2022/01/04 05:40:59;;;;;;;67.80;20.52;;;9.30;99.90;;;;;;5016971;28;20057;-81
2022/01/04 05:43:25;;;;;;;76.38;20.13;;;9.30;99.90;;;;;;5033216;28;20068;-81
2022/01/04 05:45:51;;;;;;;70.18;20.73;;;9.40;99.90;;;;;;4997883;28;20076;-81
2022/01/04 05:48:20;;;;;;;64.80;20.00;;;9.40;99.90;;;;;;5031938;28;20045;-82
2022/01/04 05:50:51;;;;;;;74.90;20.33;;;9.40;99.90;;;;;;5016205;28;20511;-81
2022/01/04 05:53:17;;;;;;;47.17;17.63;;;9.40;99.90;;;;;;5037116;28;20140;-81
2022/01/04 05:55:43;;;;;;;58.72;16.58;;;9.40;99.90;;;;;;5037331;28;20460;-81
2022/01/04 05:58:08;;;;;;;74.68;18.48;;;9.60;99.90;;;;;;5020693;28;20061;-81
2022/01/04 06:00:34;;;;;;;65.38;18.70;;;9.70;99.90;;;;;;5021065;28;20052;-81
2022/01/04 06:03:01;;;;;;;70.22;18.00;;;9.60;99.90;;;;;;5036339;28;20122;-81
2022/01/04 06:05:28;;;;;;;59.95;18.00;;;9.50;99.90;;;;;;5037256;28;20053;-81
2022/01/04 06:07:53;;;;;;;68.15;17.08;;;9.50;99.90;;;;;;5053941;28;20041;-81
2022/01/04 06:10:19;;;;;;;59.53;16.63;;;9.50;99.90;;;;;;5053801;28;20095;-81
2022/01/04 06:15:14;;;;;;;50.45;16.30;;;9.40;99.90;;;;;;5036881;28;20050;-81
2022/01/04 06:17:42;;;;;;;48.38;15.50;;;9.40;99.90;;;;;;5019797;28;20140;-81
2022/01/04 06:20:10;;;;;;;70.60;17.27;;;9.40;99.90;;;;;;5019670;28;20049;-80
2022/01/04 06:22:39;;;;;;;56.13;16.05;;;9.50;99.90;;;;;;5036431;28;20037;-80
2022/01/04 06:25:07;;;;;;;60.80;17.00;;;9.50;99.90;;;;;;5036428;28;20103;-80
2022/01/04 06:27:33;;;;;;;64.70;17.05;;;9.50;99.90;;;;;;5019793;28;20092;-81
2022/01/04 06:29:59;;;;;;;73.53;17.85;;;9.40;99.90;;;;;;5036273;28;20050;-80
2022/01/04 06:32:25;;;;;;;47.75;14.65;;;9.40;99.90;;;;;;5036069;28;20102;-81
2022/01/04 06:34:51;;;;;;;48.75;15.45;;;9.40;99.90;;;;;;5036207;28;20045;-81
2022/01/04 06:37:17;;;;;;;61.05;15.70;;;9.40;99.90;;;;;;5019228;28;20081;-80
2022/01/04 06:39:44;;;;;;;52.72;15.68;;;9.40;99.90;;;;;;5035815;28;20179;-81
2022/01/04 06:42:14;;;;;;;62.40;16.33;;;9.30;99.90;;;;;;5036125;28;20045;-81
2022/01/04 06:44:41;;;;;;;59.58;16.23;;;9.30;99.90;;;;;;5053076;28;20053;-81
2022/01/04 06:47:07;;;;;;;60.88;16.35;;;9.40;99.90;;;;;;5036212;28;20092;-81
2022/01/04 06:49:33;;;;;;;55.42;15.05;;;9.40;99.90;;;;;;5035518;28;20041;-81
2022/01/04 06:51:59;;;;;;;47.83;14.77;;;9.30;99.90;;;;;;5019199;28;20056;-81
2022/01/04 06:54:25;;;;;;;37.58;11.90;;;9.30;99.90;;;;;;5036159;28;20128;-81
2022/01/04 06:56:51;;;;;;;41.38;13.32;;;9.20;99.90;;;;;;5053039;28;20042;-82
2022/01/04 06:59:17;;;;;;;40.08;12.40;;;9.20;99.90;;;;;;5052523;28;20038;-81
2022/01/04 07:01:44;;;;;;;49.53;14.63;;;9.20;99.90;;;;;;5035501;28;20049;-82
2022/01/04 07:04:10;;;;;;;54.85;16.00;;;9.20;99.90;;;;;;5034835;28;20061;-81
2022/01/04 07:06:36;;;;;;;62.30;15.35;;;9.20;99.90;;;;;;5052378;28;20405;-82
2022/01/04 07:09:04;;;;;;;67.78;16.25;;;9.20;99.90;;;;;;5035634;28;20128;-81
2022/01/04 07:11:30;;;;;;;64.90;15.80;;;9.20;99.90;;;;;;5035498;28;20053;-82
2022/01/04 07:13:55;;;;;;;47.20;15.13;;;9.20;99.90;;;;;;5035205;28;20049;-82
2022/01/04 07:16:21;;;;;;;56.03;15.15;;;9.30;99.90;;;;;;5052067;28;20049;-82
2022/01/04 07:18:49;;;;;;;52.58;15.30;;;9.30;99.90;;;;;;5035381;28;20060;-82
2022/01/04 07:21:19;;;;;;;46.25;12.98;;;9.30;99.90;;;;;;5035422;28;20049;-82
2022/01/04 07:23:46;;;;;;;59.33;13.98;;;9.30;99.90;;;;;;5035767;28;20132;-81
2022/01/04 07:26:14;;;;;;;48.75;12.45;;;9.20;99.90;;;;;;5019145;28;20084;-81
2022/01/04 07:28:45;;;;;;;48.58;13.27;;;9.30;99.90;;;;;;5019067;28;20045;-82
2022/01/04 07:31:11;;;;;;;50.88;12.07;;;9.30;99.90;;;;;;5035792;28;20045;-82
2022/01/04 07:33:38;;;;;;;48.08;12.00;;;9.20;99.90;;;;;;5035609;28;20041;-81
2022/01/04 07:36:06;;;;;;;46.75;13.02;;;9.20;99.90;;;;;;5035336;28;20045;-82
2022/01/04 07:38:35;;;;;;;54.75;13.23;;;9.20;99.90;;;;;;5035639;28;20045;-82
2022/01/04 07:41:02;;;;;;;45.38;11.82;;;9.30;99.90;;;;;;5035405;28;20041;-82
2022/01/04 07:43:27;;;;;;;40.17;11.50;;;9.30;99.90;;;;;;5019300;28;20050;-82
2022/01/04 07:45:53;;;;;;;51.17;12.57;;;9.30;99.90;;;;;;5018793;28;20099;-82
2022/01/04 07:48:20;;;;;;;51.08;12.68;;;9.30;99.90;;;;;;5034888;28;20139;-81
2022/01/04 07:50:46;;;;;;;36.42;10.93;;;9.20;99.90;;;;;;5034652;28;20060;-82
2022/01/04 07:53:11;;;;;;;48.90;12.40;;;9.20;99.90;;;;;;5034893;28;20492;-81
2022/01/04 07:55:37;;;;;;;43.75;13.32;;;9.20;99.90;;;;;;5018406;28;20038;-82
2022/01/04 07:58:03;;;;;;;42.45;11.77;;;9.30;99.90;;;;;;5018289;28;20045;-82
2022/01/04 08:00:29;;;;;;;36.45;10.93;;;9.30;99.90;;;;;;5034868;28;20052;-83
2022/01/04 08:02:55;;;;;;;41.70;9.65;;;9.30;99.90;;;;;;5017519;28;20065;-82
2022/01/04 08:05:22;;;;;;;31.13;10.23;;;9.10;99.90;;;;;;5034644;28;20128;-82
2022/01/04 08:07:49;;;;;;;35.60;11.15;;;8.90;99.90;;;;;;5034626;28;20053;-82
2022/01/04 08:10:15;;;;;;;29.77;8.10;;;9.00;99.90;;;;;;5034304;28;20496;-81
2022/01/04 08:12:41;;;;;;;18.83;6.68;;;9.00;99.90;;;;;;5017757;28;20053;-81
2022/01/04 08:15:08;;;;;;;19.58;4.45;;;8.90;99.90;;;;;;5033667;28;20049;-81
2022/01/04 08:17:34;;;;;;;17.10;4.22;;;8.70;99.90;;;;;;5034126;28;20068;-81
2022/01/04 08:20:00;;;;;;;16.02;3.53;;;8.60;99.90;;;;;;5033460;28;20125;-81
2022/01/04 08:22:32;;;;;;;18.92;3.70;;;8.40;99.90;;;;;;5033885;28;20051;-81
2022/01/04 08:25:06;;;;;;;17.70;4.30;;;8.40;99.90;;;;;;5034190;28;20138;-81
2022/01/04 08:27:33;;;;;;;20.25;3.80;;;8.40;99.90;;;;;;5034042;28;20132;-75
2022/01/04 08:29:58;;;;;;;24.25;4.22;;;8.40;99.90;;;;;;5033892;28;20058;-74
2022/01/04 08:32:24;;;;;;;18.02;3.60;;;8.40;99.90;;;;;;5033369;28;20049;-75
2022/01/04 08:34:50;;;;;;;14.57;3.47;;;8.40;99.90;;;;;;5034497;28;20059;-74
2022/01/04 08:37:16;;;;;;;27.55;4.57;;;8.40;99.90;;;;;;5037705;28;20473;-73
2022/01/04 08:39:42;;;;;;;20.50;3.90;;;8.40;99.90;;;;;;5040586;28;20049;-74
2022/01/04 08:42:08;;;;;;;17.00;4.25;;;8.40;99.90;;;;;;5034278;28;20543;-72
2022/01/04 08:44:39;;;;;;;19.23;3.83;;;8.50;99.90;;;;;;5033188;28;20041;-73
2022/01/04 08:47:07;;;;;;;17.67;3.90;;;8.60;99.90;;;;;;5034165;28;20056;-73
2022/01/04 08:49:34;;;;;;;22.60;4.45;;;8.50;99.90;;;;;;5034162;28;20045;-72
2022/01/04 08:52:00;;;;;;;20.85;4.60;;;8.50;99.90;;;;;;5034399;28;20056;-73
2022/01/04 08:54:26;;;;;;;22.38;4.35;;;8.60;99.90;;;;;;5034300;28;20554;-73
2022/01/04 08:56:54;;;;;;;23.52;4.55;;;8.60;99.90;;;;;;5034122;28;20135;-72
2022/01/04 08:59:20;;;;;;;27.70;5.22;;;8.60;99.90;;;;;;5033046;28;20049;-72
2022/01/04 09:01:45;;;;;;;24.27;5.70;;;8.60;99.90;;;;;;5034027;28;20056;-72
2022/01/04 09:04:11;;;;;;;21.83;5.45;;;8.70;99.90;;;;;;5034398;28;20062;-73
2022/01/04 09:06:37;;;;;;;31.88;5.93;;;8.60;99.90;;;;;;5034310;28;20481;-72
2022/01/04 09:09:04;;;;;;;28.23;5.70;;;8.60;99.90;;;;;;5034124;28;20053;-73
2022/01/04 09:11:29;;;;;;;26.05;4.82;;;8.70;99.90;;;;;;5033166;28;20438;-73
2022/01/04 09:14:10;;;;;;;21.33;3.83;;;8.70;99.90;;;;;;5032910;28;20045;-73
2022/01/04 09:19:26;;;;;;;7.80;2.83;;;8.70;99.90;;;;;;5032664;28;20095;-72
2022/01/04 09:21:53;;;;;;;12.05;2.70;;;8.80;99.90;;;;;;5033656;28;20095;-74
2022/01/04 09:24:19;;;;;;;11.98;1.77;;;8.90;99.90;;;;;;5028292;28;20041;-74
2022/01/04 09:26:45;;;;;;;8.25;1.17;;;8.90;99.90;;;;;;5028915;28;20496;-73
2022/01/04 09:29:11;;;;;;;6.30;1.00;;;8.70;99.90;;;;;;5011982;28;20049;-73
2022/01/04 09:31:37;;;;;;;9.85;1.58;;;8.60;99.90;;;;;;5033397;28;20116;-73
2022/01/04 09:34:04;;;;;;;9.32;1.13;;;8.70;99.90;;;;;;5016121;28;20099;-75
2022/01/04 09:36:37;;;;;;;4.65;1.05;;;8.60;99.90;;;;;;5017606;28;20046;-74
2022/01/04 09:39:25;;;;;;;9.40;1.33;;;8.50;99.90;;;;;;5032340;28;20133;-74
2022/01/04 09:41:55;;;;;;;3.25;1.10;;;8.50;99.90;;;;;;5030298;28;20068;-74
2022/01/04 09:44:22;;;;;;;11.82;1.30;;;8.50;99.90;;;;;;5014737;28;20481;-73
2022/01/04 09:46:49;;;;;;;6.32;0.90;;;8.50;99.90;;;;;;5032407;28;20053;-74
2022/01/04 09:49:16;;;;;;;8.07;1.65;;;8.60;99.90;;;;;;5031932;28;20524;-74
2022/01/04 09:51:43;;;;;;;10.82;1.77;;;8.60;99.90;;;;;;5032266;28;20045;-74
2022/01/04 09:54:08;;;;;;;6.20;1.42;;;8.60;99.90;;;;;;5029171;28;20053;-74
2022/01/04 09:56:34;;;;;;;7.28;1.02;;;8.40;99.90;;;;;;5030609;28;20049;-75
2022/01/04 09:59:00;;;;;;;4.22;0.90;;;8.40;99.90;;;;;;5031266;28;20049;-74
2022/01/04 10:01:28;;;;;;;12.57;1.05;;;8.30;99.90;;;;;;5014784;28;20551;-75
2022/01/04 10:03:54;;;;;;;8.30;1.00;;;8.20;99.90;;;;;;5028017;28;20046;-73
2022/01/04 10:06:20;;;;;;;6.25;0.90;;;8.10;99.90;;;;;;5033345;28;20081;-73
2022/01/04 10:08:54;;;;;;;11.50;0.82;;;8.10;99.90;;;;;;5048719;28;20080;-73
2022/01/04 10:11:37;;;;;;;3.92;1.02;;;8.10;99.90;;;;;;5032025;28;20050;-73
2022/01/04 10:14:26;;;;;;;7.05;0.80;;;8.00;99.90;;;;;;5048935;28;20053;-73
2022/01/04 10:16:57;;;;;;;13.88;1.55;;;8.20;99.90;;;;;;5032646;28;20049;-78
2022/01/04 10:19:39;;;;;;;5.53;1.02;;;8.20;99.90;;;;;;5048595;28;20060;-78
2022/01/04 10:22:21;;;;;;;9.10;1.23;;;8.10;99.90;;;;;;5032215;28;20100;-78
2022/01/04 10:25:00;;;;;;;8.32;1.17;;;8.00;99.90;;;;;;5049184;28;20045;-77
2022/01/04 10:27:30;;;;;;;8.93;1.02;;;8.10;99.90;;;;;;5049434;28;20046;-75
2022/01/04 10:30:29;;;;;;;7.82;1.02;;;8.10;99.90;;;;;;5032076;28;20060;-76
2022/01/04 10:33:05;;;;;;;6.25;0.93;;;8.10;99.90;;;;;;5032027;28;20477;-76
2022/01/04 10:35:49;;;;;;;4.90;0.88;;;8.00;99.90;;;;;;5031845;28;20057;-75
2022/01/04 10:38:17;;;;;;;3.88;0.50;;;7.80;99.90;;;;;;5067031;28;20126;-75
2022/01/04 10:41:03;;;;;;;9.52;0.70;;;7.60;99.90;;;;;;5035702;28;20052;-73
2022/01/04 10:43:40;;;;;;;2.60;0.50;;;7.70;99.90;;;;;;5052575;28;20396;-76
2022/01/04 10:46:06;;;;;;;9.93;0.68;;;7.70;99.90;;;;;;5069247;28;20049;-76
2022/01/04 10:48:39;;;;;;;6.50;0.50;;;7.50;99.90;;;;;;5035505;28;20041;-76
2022/01/04 10:51:21;;;;;;;1.80;0.50;;;7.50;99.90;;;;;;5068710;28;20083;-77
2022/01/04 10:54:00;;;;;;;4.30;0.60;;;7.40;99.90;;;;;;5036283;28;20049;-78
2022/01/04 10:56:26;;;;;;;4.32;0.40;;;7.40;99.90;;;;;;5052075;28;20123;-76
2022/01/04 10:58:53;;;;;;;9.20;0.95;;;7.40;99.90;;;;;;5068855;28;20057;-77
2022/01/04 11:01:21;;;;;;;7.88;0.77;;;7.50;99.90;;;;;;5051882;28;20053;-77
2022/01/04 11:03:51;;;;;;;5.70;0.85;;;7.50;99.90;;;;;;5068724;28;20061;-76
2022/01/04 11:06:27;;;;;;;5.78;0.50;;;7.70;99.90;;;;;;5019014;28;20110;-77
2022/01/04 11:08:54;;;;;;;3.33;0.40;;;7.70;99.90;;;;;;5051951;28;20488;-77
2022/01/04 11:11:21;;;;;;;5.80;0.52;;;7.80;99.90;;;;;;5035260;28;20128;-76
2022/01/04 11:13:48;;;;;;;6.15;0.75;;;7.90;99.90;;;;;;5052100;28;20053;-77
2022/01/04 11:16:15;;;;;;;4.05;0.60;;;7.80;99.90;;;;;;5051540;28;20046;-77
2022/01/04 11:18:41;;;;;;;3.60;0.43;;;7.60;99.90;;;;;;5051700;28;20068;-79
2022/01/04 11:21:12;;;;;;;3.92;0.22;;;7.50;99.90;;;;;;5034495;28;20058;-74
2022/01/04 11:23:40;;;;;;;3.95;0.15;;;7.30;99.90;;;;;;5037929;28;20053;-77
2022/01/04 11:26:08;;;;;;;0.98;0.13;;;7.20;99.90;;;;;;5038826;28;20057;-76
2022/01/04 11:28:38;;;;;;;2.45;0.40;;;7.20;99.90;;;;;;5068167;28;20061;-76
2022/01/04 11:31:22;;;;;;;3.50;0.20;;;7.40;99.90;;;;;;5068324;28;20068;-77
2022/01/04 11:34:12;;;;;;;7.68;0.50;;;7.30;99.90;;;;;;5051473;28;20053;-77
2022/01/04 11:36:43;;;;;;;2.33;0.25;;;7.00;99.90;;;;;;5051553;28;20136;-76
2022/01/04 11:39:31;;;;;;;4.22;0.43;;;7.00;99.90;;;;;;5035276;28;20054;-77
2022/01/04 11:41:59;;;;;;;7.72;0.50;;;7.00;99.90;;;;;;5051015;28;20049;-77
2022/01/04 11:44:27;;;;;;;8.82;0.60;;;7.10;99.90;;;;;;5034554;28;20473;-76
2022/01/04 11:47:22;;;;;;;5.90;0.43;;;7.10;99.90;;;;;;5034486;28;20053;-76
2022/01/04 11:50:07;;;;;;;6.32;0.50;;;7.20;99.90;;;;;;5029178;28;20056;-77
2022/01/04 11:52:46;;;;;;;5.15;0.50;;;7.20;99.90;;;;;;5051199;28;20065;-71
2022/01/04 11:55:29;;;;;;;3.38;0.45;;;7.20;99.90;;;;;;5051081;28;20057;-71
2022/01/04 11:58:08;;;;;;;8.10;0.80;;;7.00;99.90;;;;;;5051069;28;20045;-73
2022/01/04 12:00:36;;;;;;;6.82;0.40;;;7.40;99.90;;;;;;5034321;28;20091;-73
2022/01/04 12:03:11;;;;;;;3.92;0.40;;;7.50;99.90;;;;;;5046551;28;20062;-72
2022/01/04 12:05:39;;;;;;;6.93;0.35;;;7.70;99.90;;;;;;5027025;28;20484;-71
2022/01/04 12:08:41;;;;;;;6.53;0.45;;;7.60;99.90;;;;;;5050303;28;20103;-74
2022/01/04 12:11:25;;;;;;;6.55;0.32;;;7.50;99.90;;;;;;5029800;28;20405;-73
2022/01/04 12:13:56;;;;;;;8.13;0.40;;;7.40;99.90;;;;;;5014093;28;20101;-74
2022/01/04 12:16:37;;;;;;;4.25;0.60;;;7.40;99.90;;;;;;5030579;28;20382;-72
2022/01/04 12:19:08;;;;;;;5.88;0.60;;;7.50;99.90;;;;;;5013494;28;20049;-72
2022/01/04 12:21:37;;;;;;;10.32;0.60;;;7.60;99.90;;;;;;5030288;28;20121;-72
2022/01/04 12:24:04;;;;;;;2.92;0.35;;;7.60;99.70;;;;;;5019577;28;20042;-73
2022/01/04 12:26:32;;;;;;;5.47;0.50;;;7.70;99.90;;;;;;5046540;28;20057;-74
2022/01/04 12:28:58;;;;;;;8.15;0.57;;;7.70;99.90;;;;;;5023987;28;20045;-75
2022/01/04 12:31:25;;;;;;;8.07;1.00;;;7.80;99.90;;;;;;5065139;28;20057;-73
2022/01/04 12:34:02;;;;;;;7.70;0.80;;;7.80;99.50;;;;;;5033470;28;20041;-73
2022/01/04 12:36:33;;;;;;;3.25;0.52;;;7.90;99.80;;;;;;5033097;28;20077;-73
2022/01/04 12:39:05;;;;;;;9.55;0.80;;;7.90;99.50;;;;;;5033493;28;20057;-73
2022/01/04 12:41:32;;;;;;;9.73;1.00;;;8.00;99.50;;;;;;5033277;28;20041;-73
2022/01/04 12:43:59;;;;;;;9.65;0.95;;;7.80;99.50;;;;;;5033494;28;20047;-73
2022/01/04 12:46:31;;;;;;;12.93;1.30;;;7.70;99.90;;;;;;5049815;28;20068;-74
2022/01/04 12:49:02;;;;;;;5.25;0.73;;;7.60;99.90;;;;;;5013568;28;20061;-73
2022/01/04 12:51:32;;;;;;;10.25;0.65;;;7.40;99.50;;;;;;5013931;28;20106;-73
2022/01/04 12:54:05;;;;;;;11.63;0.73;;;7.20;99.90;;;;;;5013538;28;20046;-73
2022/01/04 12:56:31;;;;;;;7.55;0.90;;;7.20;99.90;;;;;;5013305;28;20088;-73
2022/01/04 12:58:58;;;;;;;14.35;1.20;;;7.30;99.90;;;;;;5013690;28;20077;-73
2022/01/04 13:01:28;;;;;;;9.63;1.13;;;7.40;99.70;;;;;;5012876;28;20072;-73
2022/01/04 13:03:54;;;;;;;6.15;0.50;;;7.40;99.50;;;;;;5012798;28;20089;-76